createdAt,value
2018-04-16T00:00:25.588Z,0.00
2018-04-16T00:01:25.575Z,0.00
2018-04-16T00:02:25.559Z,0.00
2018-04-16T00:03:25.546Z,0.00
2018-04-16T00:04:25.599Z,0.00
2018-04-16T00:05:25.518Z,0.00
2018-04-16T00:06:25.511Z,0.00
2018-04-16T00:07:25.488Z,0.00
2018-04-16T00:08:25.475Z,0.00
2018-04-16T00:09:25.462Z,0.00
2018-04-16T00:10:25.449Z,0.00
2018-04-16T00:11:25.437Z,0.00
2018-04-16T00:12:25.425Z,0.00
2018-04-16T00:13:25.404Z,0.00
2018-04-16T00:14:25.392Z,0.00
2018-04-16T00:15:25.386Z,0.00
2018-04-16T00:16:25.364Z,0.00
2018-04-16T00:17:25.354Z,0.00
2018-04-16T00:18:25.334Z,0.00
2018-04-16T00:19:25.321Z,0.00
2018-04-16T00:20:25.306Z,0.00
2018-04-16T00:21:25.293Z,0.00
2018-04-16T00:22:25.277Z,0.00
2018-04-16T00:23:25.263Z,0.00
2018-04-16T00:24:25.260Z,0.00
2018-04-16T00:25:25.233Z,0.00
2018-04-16T00:26:25.223Z,0.00
2018-04-16T00:27:25.205Z,0.00
2018-04-16T00:28:25.196Z,0.00
2018-04-16T00:29:25.177Z,0.00
2018-04-16T00:30:25.163Z,0.00
2018-04-16T00:31:25.148Z,0.00
2018-04-16T00:32:25.134Z,0.00
2018-04-16T00:33:25.122Z,0.00
2018-04-16T00:34:25.108Z,0.00
2018-04-16T00:35:25.090Z,0.00
2018-04-16T00:36:25.077Z,0.00
2018-04-16T00:37:25.067Z,0.00
2018-04-16T00:38:25.047Z,0.00
2018-04-16T00:39:25.039Z,0.00
2018-04-16T00:40:25.021Z,0.00
2018-04-16T00:41:25.107Z,0.00
2018-04-16T00:42:24.992Z,0.00
2018-04-16T00:43:25.075Z,0.00
2018-04-16T00:44:24.964Z,0.00
2018-04-16T00:45:24.952Z,0.00
2018-04-16T00:46:24.935Z,0.00
2018-04-16T00:47:24.922Z,0.00
2018-04-16T00:48:24.906Z,0.00
2018-04-16T00:49:24.897Z,0.00
2018-04-16T00:50:24.874Z,0.00
2018-04-16T00:51:24.962Z,0.00
2018-04-16T00:52:24.850Z,0.00
2018-04-16T00:53:24.887Z,0.00
2018-04-16T00:54:24.817Z,0.00
2018-04-16T00:55:24.808Z,0.00
2018-04-16T00:56:24.800Z,0.00
2018-04-16T00:57:24.785Z,0.00
2018-04-16T00:58:24.767Z,0.00
2018-04-16T00:59:24.801Z,0.00
2018-04-16T01:00:24.733Z,0.00
2018-04-16T01:01:24.725Z,0.00
2018-04-16T01:02:24.702Z,0.00
2018-04-16T01:03:24.794Z,0.00
2018-04-16T01:04:24.672Z,0.00
2018-04-16T01:05:24.662Z,0.00
2018-04-16T01:06:24.651Z,0.00
2018-04-16T01:07:24.632Z,0.00
2018-04-16T01:08:24.619Z,0.00
2018-04-16T01:09:24.603Z,0.00
2018-04-16T01:10:24.586Z,0.00
2018-04-16T01:11:24.584Z,0.00
2018-04-16T01:12:24.561Z,0.00
2018-04-16T01:13:24.547Z,0.00
2018-04-16T01:14:24.528Z,0.00
2018-04-16T01:15:24.512Z,0.00
2018-04-16T01:16:24.500Z,0.00
2018-04-16T01:17:24.492Z,0.00
2018-04-16T01:18:24.472Z,0.00
2018-04-16T01:19:24.456Z,0.00
2018-04-16T01:20:24.442Z,0.00
2018-04-16T01:21:24.432Z,0.00
2018-04-16T01:22:24.412Z,0.00
2018-04-16T01:23:24.403Z,0.00
2018-04-16T01:24:24.385Z,0.00
2018-04-16T01:25:24.374Z,0.00
2018-04-16T01:26:24.361Z,0.00
2018-04-16T01:27:24.344Z,0.00
2018-04-16T01:28:24.327Z,0.00
2018-04-16T01:29:24.324Z,0.00
2018-04-16T01:30:24.299Z,0.00
2018-04-16T01:31:24.292Z,0.00
2018-04-16T01:32:24.273Z,0.00
2018-04-16T01:33:24.265Z,0.00
2018-04-16T01:34:24.259Z,0.00
2018-04-16T01:35:24.238Z,0.00
2018-04-16T01:36:24.214Z,0.00
2018-04-16T01:37:24.206Z,0.00
2018-04-16T01:38:24.186Z,0.00
2018-04-16T01:39:24.181Z,0.00
2018-04-16T01:40:24.166Z,0.00
2018-04-16T01:41:24.140Z,0.00
2018-04-16T01:42:24.127Z,0.00
2018-04-16T01:43:24.117Z,0.00
2018-04-16T01:44:24.099Z,0.00
2018-04-16T01:45:24.086Z,0.00
2018-04-16T01:46:24.070Z,0.00
2018-04-16T01:47:24.056Z,0.00
2018-04-16T01:48:24.046Z,0.00
2018-04-16T01:49:24.025Z,0.00
2018-04-16T01:50:24.014Z,0.00
2018-04-16T01:51:23.995Z,0.00
2018-04-16T01:52:23.983Z,0.00
2018-04-16T01:53:23.965Z,0.00
2018-04-16T01:54:23.952Z,0.00
2018-04-16T01:55:23.949Z,0.00
2018-04-16T01:56:23.920Z,0.00
2018-04-16T01:57:23.916Z,0.00
2018-04-16T01:58:23.894Z,0.00
2018-04-16T01:59:23.881Z,0.00
2018-04-16T02:00:23.866Z,0.00
2018-04-16T02:01:23.847Z,0.00
2018-04-16T02:02:23.836Z,0.00
2018-04-16T02:03:23.824Z,0.00
2018-04-16T02:04:23.815Z,0.00
2018-04-16T02:05:23.794Z,0.00
2018-04-16T02:06:23.776Z,0.00
2018-04-16T02:07:23.761Z,0.00
2018-04-16T02:08:23.746Z,0.00
2018-04-16T02:09:23.729Z,0.00
2018-04-16T02:10:23.714Z,0.00
2018-04-16T02:11:23.702Z,0.00
2018-04-16T02:12:23.685Z,0.00
2018-04-16T02:13:23.675Z,0.00
2018-04-16T02:14:23.657Z,0.00
2018-04-16T02:15:23.640Z,0.00
2018-04-16T02:16:23.624Z,0.00
2018-04-16T02:17:23.612Z,0.00
2018-04-16T02:18:23.602Z,0.00
2018-04-16T02:19:23.577Z,0.00
2018-04-16T02:20:23.608Z,0.00
2018-04-16T02:21:23.552Z,0.00
2018-04-16T02:22:23.531Z,0.00
2018-04-16T02:23:23.522Z,0.00
2018-04-16T02:24:23.616Z,0.00
2018-04-16T02:25:23.502Z,0.00
2018-04-16T02:26:23.474Z,0.00
2018-04-16T02:27:23.459Z,0.00
2018-04-16T02:28:23.447Z,0.00
2018-04-16T02:29:23.430Z,0.00
2018-04-16T02:30:23.562Z,0.00
2018-04-16T02:31:23.403Z,0.00
2018-04-16T02:32:23.385Z,0.00
2018-04-16T02:33:23.373Z,0.00
2018-04-16T02:34:23.354Z,0.00
2018-04-16T02:35:23.343Z,0.00
2018-04-16T02:36:23.328Z,0.00
2018-04-16T02:37:23.308Z,0.00
2018-04-16T02:38:23.355Z,0.00
2018-04-16T02:39:23.279Z,0.00
2018-04-16T02:40:23.365Z,0.00
2018-04-16T02:41:23.253Z,0.00
2018-04-16T02:42:23.293Z,0.00
2018-04-16T02:43:23.221Z,0.00
2018-04-16T02:44:23.215Z,0.00
2018-04-16T02:45:23.193Z,0.00
2018-04-16T02:46:23.231Z,0.00
2018-04-16T02:47:23.164Z,0.00
2018-04-16T02:48:23.154Z,0.00
2018-04-16T02:49:23.133Z,0.00
2018-04-16T02:50:23.168Z,0.00
2018-04-16T02:51:23.103Z,0.00
2018-04-16T02:52:23.090Z,0.00
2018-04-16T02:53:23.085Z,0.00
2018-04-16T02:54:23.106Z,0.00
2018-04-16T02:55:23.039Z,0.00
2018-04-16T02:56:23.032Z,0.00
2018-04-16T02:57:23.013Z,0.00
2018-04-16T02:58:22.994Z,0.00
2018-04-16T02:59:22.984Z,0.00
2018-04-16T03:00:22.965Z,0.00
2018-04-16T03:01:22.952Z,0.00
2018-04-16T03:02:22.943Z,0.00
2018-04-16T03:03:22.921Z,0.00
2018-04-16T03:04:22.911Z,0.00
2018-04-16T03:05:22.896Z,0.00
2018-04-16T03:06:22.883Z,0.00
2018-04-16T03:07:22.863Z,0.00
2018-04-16T03:08:22.846Z,0.00
2018-04-16T03:09:22.840Z,0.00
2018-04-16T03:10:22.824Z,0.00
2018-04-16T03:11:22.809Z,0.00
2018-04-16T03:12:22.792Z,0.00
2018-04-16T03:13:22.785Z,0.00
2018-04-16T03:14:22.761Z,0.00
2018-04-16T03:15:22.744Z,0.00
2018-04-16T03:16:22.731Z,0.00
2018-04-16T03:17:22.714Z,0.00
2018-04-16T03:18:22.697Z,0.00
2018-04-16T03:19:22.684Z,0.00
2018-04-16T03:20:22.676Z,0.00
2018-04-16T03:21:22.655Z,0.00
2018-04-16T03:22:22.645Z,0.00
2018-04-16T03:23:22.625Z,0.00
2018-04-16T03:24:22.618Z,0.00
2018-04-16T03:25:22.595Z,0.00
2018-04-16T03:26:22.584Z,0.00
2018-04-16T03:27:22.564Z,0.00
2018-04-16T03:28:22.553Z,0.00
2018-04-16T03:29:22.532Z,0.00
2018-04-16T03:30:22.526Z,0.00
2018-04-16T03:31:22.506Z,0.00
2018-04-16T03:32:22.495Z,0.00
2018-04-16T03:33:22.473Z,0.00
2018-04-16T03:34:22.463Z,0.00
2018-04-16T03:35:22.446Z,0.00
2018-04-16T03:36:22.435Z,0.00
2018-04-16T03:37:22.425Z,0.00
2018-04-16T03:38:22.401Z,0.00
2018-04-16T03:39:22.385Z,0.00
2018-04-16T03:40:22.372Z,0.00
2018-04-16T03:41:22.351Z,0.00
2018-04-16T03:42:22.335Z,0.00
2018-04-16T03:43:22.324Z,0.00
2018-04-16T03:44:22.305Z,0.00
2018-04-16T03:45:22.295Z,0.00
2018-04-16T03:46:22.275Z,0.00
2018-04-16T03:47:22.263Z,0.00
2018-04-16T03:48:22.246Z,0.00
2018-04-16T03:49:22.238Z,0.00
2018-04-16T03:50:22.214Z,0.00
2018-04-16T03:51:22.197Z,0.00
2018-04-16T03:52:22.185Z,0.00
2018-04-16T03:53:22.168Z,0.00
2018-04-16T03:54:22.155Z,0.00
2018-04-16T03:55:22.145Z,0.00
2018-04-16T03:56:22.125Z,0.00
2018-04-16T03:57:22.111Z,0.00
2018-04-16T03:58:22.091Z,0.00
2018-04-16T03:59:22.076Z,0.00
2018-04-16T04:00:22.064Z,0.00
2018-04-16T04:01:22.133Z,0.00
2018-04-16T04:02:22.036Z,0.00
2018-04-16T04:03:22.015Z,0.00
2018-04-16T04:04:22.007Z,0.00
2018-04-16T04:05:21.989Z,0.00
2018-04-16T04:06:21.971Z,0.00
2018-04-16T04:07:21.956Z,0.00
2018-04-16T04:08:21.943Z,0.00
2018-04-16T04:09:21.926Z,0.00
2018-04-16T04:10:21.916Z,0.00
2018-04-16T04:11:21.894Z,0.00
2018-04-16T04:12:21.887Z,0.00
2018-04-16T04:13:21.867Z,0.00
2018-04-16T04:14:21.853Z,0.00
2018-04-16T04:15:21.836Z,0.00
2018-04-16T04:16:21.820Z,0.00
2018-04-16T04:17:21.816Z,0.00
2018-04-16T04:18:21.795Z,0.00
2018-04-16T04:19:21.777Z,0.00
2018-04-16T04:20:21.756Z,0.00
2018-04-16T04:21:21.744Z,0.00
2018-04-16T04:22:21.725Z,0.00
2018-04-16T04:23:21.714Z,0.00
2018-04-16T04:24:21.696Z,0.00
2018-04-16T04:25:21.680Z,0.00
2018-04-16T04:26:21.666Z,0.00
2018-04-16T04:27:21.655Z,0.00
2018-04-16T04:28:21.632Z,0.00
2018-04-16T04:29:21.718Z,0.00
2018-04-16T04:30:21.600Z,0.00
2018-04-16T04:31:21.647Z,0.00
2018-04-16T04:32:21.572Z,0.00
2018-04-16T04:33:21.563Z,0.00
2018-04-16T04:34:21.541Z,0.00
2018-04-16T04:35:21.531Z,0.00
2018-04-16T04:36:21.514Z,0.00
2018-04-16T04:37:21.541Z,0.00
2018-04-16T04:38:21.485Z,0.00
2018-04-16T04:39:21.472Z,0.00
2018-04-16T04:40:21.450Z,0.00
2018-04-16T04:41:21.444Z,5.63
2018-04-16T04:42:21.423Z,5.63
2018-04-16T04:43:21.504Z,5.63
2018-04-16T04:44:21.390Z,5.63
2018-04-16T04:45:21.378Z,5.63
2018-04-16T04:46:21.366Z,5.63
2018-04-16T04:47:21.345Z,5.63
2018-04-16T04:48:21.336Z,5.63
2018-04-16T04:49:21.312Z,5.63
2018-04-16T04:50:21.297Z,5.63
2018-04-16T04:51:21.284Z,5.63
2018-04-16T04:52:21.266Z,5.63
2018-04-16T04:53:21.248Z,5.63
2018-04-16T04:54:21.236Z,5.63
2018-04-16T04:55:21.224Z,5.63
2018-04-16T04:56:21.204Z,5.63
2018-04-16T04:57:21.184Z,11.25
2018-04-16T04:58:21.173Z,11.25
2018-04-16T04:59:21.154Z,11.25
2018-04-16T05:00:21.140Z,11.25
2018-04-16T05:01:21.121Z,11.25
2018-04-16T05:02:21.111Z,11.25
2018-04-16T05:03:21.093Z,11.25
2018-04-16T05:04:21.077Z,11.25
2018-04-16T05:05:21.069Z,11.25
2018-04-16T05:06:21.044Z,11.25
2018-04-16T05:07:21.033Z,11.25
2018-04-16T05:08:21.014Z,16.88
2018-04-16T05:09:21.007Z,16.88
2018-04-16T05:10:20.983Z,16.88
2018-04-16T05:11:21.013Z,16.88
2018-04-16T05:12:20.953Z,16.88
2018-04-16T05:13:20.936Z,16.88
2018-04-16T05:14:20.918Z,16.88
2018-04-16T05:15:20.904Z,16.88
2018-04-16T05:16:20.889Z,16.88
2018-04-16T05:17:20.876Z,22.50
2018-04-16T05:18:20.857Z,22.50
2018-04-16T05:19:20.839Z,22.50
2018-04-16T05:20:20.827Z,22.50
2018-04-16T05:21:20.810Z,22.50
2018-04-16T05:22:20.795Z,22.50
2018-04-16T05:23:20.779Z,28.13
2018-04-16T05:24:20.762Z,28.13
2018-04-16T05:25:20.747Z,28.13
2018-04-16T05:26:20.731Z,28.13
2018-04-16T05:27:20.725Z,33.75
2018-04-16T05:28:20.701Z,33.75
2018-04-16T05:29:20.685Z,33.75
2018-04-16T05:30:20.670Z,33.75
2018-04-16T05:31:20.654Z,39.38
2018-04-16T05:32:20.638Z,39.38
2018-04-16T05:33:20.622Z,39.38
2018-04-16T05:34:20.605Z,45.00
2018-04-16T05:35:20.594Z,45.00
2018-04-16T05:36:20.575Z,50.63
2018-04-16T05:37:20.571Z,50.63
2018-04-16T05:38:20.544Z,56.25
2018-04-16T05:39:20.529Z,56.25
2018-04-16T05:40:20.512Z,56.25
2018-04-16T05:41:20.515Z,61.88
2018-04-16T05:42:20.483Z,61.88
2018-04-16T05:43:20.473Z,61.88
2018-04-16T05:44:20.454Z,61.88
2018-04-16T05:45:20.442Z,67.50
2018-04-16T05:46:20.420Z,67.50
2018-04-16T05:47:20.409Z,67.50
2018-04-16T05:48:20.396Z,73.13
2018-04-16T05:49:20.401Z,73.13
2018-04-16T05:50:20.369Z,73.13
2018-04-16T05:51:20.345Z,78.75
2018-04-16T05:52:20.332Z,73.13
2018-04-16T05:53:20.312Z,73.13
2018-04-16T05:54:20.304Z,78.75
2018-04-16T05:55:20.283Z,78.75
2018-04-16T05:56:20.269Z,78.75
2018-04-16T05:57:20.253Z,78.75
2018-04-16T05:58:20.241Z,84.38
2018-04-16T05:59:20.220Z,84.38
2018-04-16T06:00:20.249Z,90.00
2018-04-16T06:01:20.190Z,90.00
2018-04-16T06:02:20.174Z,95.63
2018-04-16T06:03:20.160Z,95.63
2018-04-16T06:04:20.151Z,101.25
2018-04-16T06:05:20.133Z,101.25
2018-04-16T06:06:20.120Z,101.25
2018-04-16T06:07:20.099Z,101.25
2018-04-16T06:08:20.090Z,101.25
2018-04-16T06:09:20.074Z,101.25
2018-04-16T06:10:20.058Z,106.88
2018-04-16T06:11:20.042Z,106.88
2018-04-16T06:12:20.033Z,112.50
2018-04-16T06:13:20.017Z,112.50
2018-04-16T06:14:19.995Z,118.13
2018-04-16T06:15:19.993Z,118.13
2018-04-16T06:16:19.971Z,123.75
2018-04-16T06:17:19.953Z,129.38
2018-04-16T06:18:19.940Z,129.38
2018-04-16T06:19:19.926Z,135.00
2018-04-16T06:20:19.913Z,135.00
2018-04-16T06:21:19.893Z,135.00
2018-04-16T06:22:19.881Z,140.63
2018-04-16T06:23:19.863Z,140.63
2018-04-16T06:24:19.859Z,146.25
2018-04-16T06:25:19.851Z,151.88
2018-04-16T06:26:19.823Z,151.88
2018-04-16T06:27:19.859Z,151.88
2018-04-16T06:28:19.800Z,151.88
2018-04-16T06:29:19.792Z,157.50
2018-04-16T06:30:19.774Z,157.50
2018-04-16T06:31:19.763Z,157.50
2018-04-16T06:32:19.745Z,157.50
2018-04-16T06:33:19.722Z,168.75
2018-04-16T06:34:19.722Z,163.13
2018-04-16T06:35:19.692Z,146.25
2018-04-16T06:36:19.682Z,129.38
2018-04-16T06:37:19.666Z,123.75
2018-04-16T06:38:19.653Z,123.75
2018-04-16T06:39:19.646Z,123.75
2018-04-16T06:40:19.629Z,135.00
2018-04-16T06:41:19.617Z,146.25
2018-04-16T06:42:19.611Z,168.75
2018-04-16T06:43:19.599Z,196.88
2018-04-16T06:44:19.573Z,213.75
2018-04-16T06:45:19.564Z,247.50
2018-04-16T06:46:19.548Z,658.13
2018-04-16T06:47:19.541Z,950.63
2018-04-16T06:48:19.539Z,1192.50
2018-04-16T06:49:19.525Z,1282.50
2018-04-16T06:50:19.505Z,1310.63
2018-04-16T06:51:19.493Z,1310.63
2018-04-16T06:52:19.484Z,1355.63
2018-04-16T06:53:19.472Z,1338.75
2018-04-16T06:54:19.466Z,1383.75
2018-04-16T06:55:19.461Z,1417.50
2018-04-16T06:56:19.459Z,1389.38
2018-04-16T06:57:19.456Z,275.63
2018-04-16T06:58:19.430Z,354.38
2018-04-16T06:59:19.440Z,1147.50
2018-04-16T07:00:19.430Z,697.50
2018-04-16T07:01:19.434Z,534.38
2018-04-16T07:02:19.410Z,247.50
2018-04-16T07:03:19.399Z,281.25
2018-04-16T07:04:19.395Z,675.00
2018-04-16T07:05:19.407Z,348.75
2018-04-16T07:06:19.376Z,258.75
2018-04-16T07:07:19.364Z,286.88
2018-04-16T07:08:19.370Z,348.75
2018-04-16T07:09:19.352Z,759.38
2018-04-16T07:10:19.338Z,765.00
2018-04-16T07:11:19.337Z,1338.75
2018-04-16T07:12:19.328Z,495.00
2018-04-16T07:13:19.319Z,472.50
2018-04-16T07:14:19.307Z,433.13
2018-04-16T07:15:19.294Z,613.13
2018-04-16T07:16:19.288Z,393.75
2018-04-16T07:17:19.282Z,393.75
2018-04-16T07:18:19.273Z,585.00
2018-04-16T07:19:19.275Z,641.25
2018-04-16T07:20:19.254Z,1569.38
2018-04-16T07:21:19.252Z,495.00
2018-04-16T07:22:19.240Z,978.75
2018-04-16T07:23:19.232Z,281.25
2018-04-16T07:24:19.262Z,286.88
2018-04-16T07:25:19.216Z,258.75
2018-04-16T07:26:19.209Z,337.50
2018-04-16T07:27:19.229Z,208.13
2018-04-16T07:28:19.190Z,196.88
2018-04-16T07:29:19.180Z,174.38
2018-04-16T07:30:19.171Z,174.38
2018-04-16T07:31:19.164Z,196.88
2018-04-16T07:32:19.154Z,213.75
2018-04-16T07:33:19.149Z,236.25
2018-04-16T07:34:19.139Z,270.00
2018-04-16T07:35:19.179Z,236.25
2018-04-16T07:36:19.127Z,270.00
2018-04-16T07:37:19.120Z,371.25
2018-04-16T07:38:19.102Z,517.50
2018-04-16T07:39:19.087Z,1147.50
2018-04-16T07:40:19.081Z,562.50
2018-04-16T07:41:19.121Z,528.75
2018-04-16T07:42:19.062Z,1029.38
2018-04-16T07:43:19.061Z,1456.88
2018-04-16T07:44:19.052Z,978.75
2018-04-16T07:45:19.041Z,455.63
2018-04-16T07:46:19.038Z,686.25
2018-04-16T07:47:19.022Z,573.75
2018-04-16T07:48:19.017Z,1586.25
2018-04-16T07:49:19.013Z,1535.63
2018-04-16T07:50:19.001Z,1400.63
2018-04-16T07:51:19.000Z,1496.25
2018-04-16T07:52:18.995Z,1440.00
2018-04-16T07:53:18.991Z,933.75
2018-04-16T07:54:18.982Z,630.00
2018-04-16T07:55:18.990Z,703.13
2018-04-16T07:56:18.977Z,939.38
2018-04-16T07:57:18.971Z,950.63
2018-04-16T07:58:18.969Z,1051.88
2018-04-16T07:59:18.964Z,945.00
2018-04-16T08:00:18.959Z,894.38
2018-04-16T08:01:18.962Z,855.00
2018-04-16T08:02:18.951Z,748.13
2018-04-16T08:03:18.955Z,736.88
2018-04-16T08:04:18.949Z,1203.75
2018-04-16T08:05:18.941Z,1344.38
2018-04-16T08:06:18.941Z,1552.50
2018-04-16T08:07:18.943Z,1524.38
2018-04-16T08:08:19.083Z,1490.63
2018-04-16T08:09:18.932Z,1456.88
2018-04-16T08:10:19.032Z,1395.00
2018-04-16T08:11:18.928Z,1575.00
2018-04-16T08:12:18.933Z,1535.63
2018-04-16T08:13:18.936Z,1411.88
2018-04-16T08:14:18.982Z,1451.25
2018-04-16T08:15:18.933Z,967.50
2018-04-16T08:16:18.933Z,1310.63
2018-04-16T08:17:18.937Z,1327.50
2018-04-16T08:18:18.937Z,1344.38
2018-04-16T08:19:19.027Z,1462.50
2018-04-16T08:20:18.933Z,1181.25
2018-04-16T08:21:18.933Z,1310.63
2018-04-16T08:22:18.953Z,781.88
2018-04-16T08:23:18.936Z,405.00
2018-04-16T08:24:18.944Z,1366.88
2018-04-16T08:25:18.943Z,1411.88
2018-04-16T08:26:18.943Z,1350.00
2018-04-16T08:27:18.940Z,1485.00
2018-04-16T08:28:18.943Z,1440.00
2018-04-16T08:29:18.949Z,1434.38
2018-04-16T08:30:18.951Z,1456.88
2018-04-16T08:31:18.951Z,1456.88
2018-04-16T08:32:18.965Z,1473.75
2018-04-16T08:33:19.043Z,1501.88
2018-04-16T08:34:18.960Z,1546.88
2018-04-16T08:35:19.014Z,1524.38
2018-04-16T08:36:18.965Z,1468.13
2018-04-16T08:37:18.970Z,1440.00
2018-04-16T08:38:18.972Z,1310.63
2018-04-16T08:39:18.980Z,1080.00
2018-04-16T08:40:18.975Z,343.13
2018-04-16T08:41:19.034Z,343.13
2018-04-16T08:42:18.984Z,630.00
2018-04-16T08:43:18.984Z,399.38
2018-04-16T08:44:18.986Z,309.38
2018-04-16T08:45:18.994Z,1254.38
2018-04-16T08:46:18.988Z,1153.13
2018-04-16T08:47:18.986Z,292.50
2018-04-16T08:48:18.996Z,303.75
2018-04-16T08:49:18.989Z,1170.00
2018-04-16T08:50:18.993Z,568.13
2018-04-16T08:51:19.006Z,1085.63
2018-04-16T08:52:18.993Z,1282.50
2018-04-16T08:53:18.993Z,1153.13
2018-04-16T08:54:18.989Z,286.88
2018-04-16T08:55:18.991Z,382.50
2018-04-16T08:56:18.992Z,1068.75
2018-04-16T08:57:18.992Z,1305.00
2018-04-16T08:58:18.985Z,1338.75
2018-04-16T08:59:18.987Z,1327.50
2018-04-16T09:00:18.988Z,444.38
2018-04-16T09:01:18.984Z,320.63
2018-04-16T09:02:19.032Z,320.63
2018-04-16T09:03:18.985Z,478.13
2018-04-16T09:04:18.974Z,781.88
2018-04-16T09:05:18.974Z,405.00
2018-04-16T09:06:18.975Z,483.75
2018-04-16T09:07:18.974Z,331.88
2018-04-16T09:08:18.963Z,343.13
2018-04-16T09:09:18.962Z,337.50
2018-04-16T09:10:18.956Z,1282.50
2018-04-16T09:11:18.956Z,905.63
2018-04-16T09:12:18.951Z,382.50
2018-04-16T09:13:18.951Z,348.75
2018-04-16T09:14:18.943Z,326.25
2018-04-16T09:15:18.948Z,961.88
2018-04-16T09:16:18.942Z,275.63
2018-04-16T09:17:18.987Z,241.88
2018-04-16T09:18:18.932Z,253.13
2018-04-16T09:19:18.923Z,1057.50
2018-04-16T09:20:18.924Z,652.50
2018-04-16T09:21:18.912Z,281.25
2018-04-16T09:22:18.907Z,247.50
2018-04-16T09:23:18.913Z,303.75
2018-04-16T09:24:18.914Z,950.63
2018-04-16T09:25:18.977Z,765.00
2018-04-16T09:26:18.896Z,939.38
2018-04-16T09:27:18.885Z,337.50
2018-04-16T09:28:18.880Z,236.25
2018-04-16T09:29:18.883Z,230.63
2018-04-16T09:30:18.873Z,489.38
2018-04-16T09:31:18.877Z,208.13
2018-04-16T09:32:18.864Z,748.13
2018-04-16T09:33:18.855Z,309.38
2018-04-16T09:34:18.856Z,849.38
2018-04-16T09:35:18.844Z,765.00
2018-04-16T09:36:18.833Z,618.75
2018-04-16T09:37:18.827Z,652.50
2018-04-16T09:38:18.821Z,618.75
2018-04-16T09:39:18.814Z,630.00
2018-04-16T09:40:18.821Z,658.13
2018-04-16T09:41:18.803Z,472.50
2018-04-16T09:42:18.796Z,483.75
2018-04-16T09:43:18.791Z,298.13
2018-04-16T09:44:18.790Z,270.00
2018-04-16T09:45:18.779Z,213.75
2018-04-16T09:46:18.774Z,241.88
2018-04-16T09:47:18.778Z,208.13
2018-04-16T09:48:18.767Z,275.63
2018-04-16T09:49:18.754Z,281.25
2018-04-16T09:50:18.759Z,281.25
2018-04-16T09:51:18.745Z,286.88
2018-04-16T09:52:18.735Z,286.88
2018-04-16T09:53:18.731Z,320.63
2018-04-16T09:54:18.725Z,416.25
2018-04-16T09:55:18.713Z,382.50
2018-04-16T09:56:18.708Z,399.38
2018-04-16T09:57:18.703Z,405.00
2018-04-16T09:58:18.704Z,438.75
2018-04-16T09:59:18.697Z,388.13
2018-04-16T10:00:18.717Z,315.00
2018-04-16T10:01:18.677Z,382.50
2018-04-16T10:02:18.673Z,382.50
2018-04-16T10:03:18.674Z,315.00
2018-04-16T10:04:18.672Z,292.50
2018-04-16T10:05:18.653Z,315.00
2018-04-16T10:06:18.645Z,354.38
2018-04-16T10:07:18.637Z,410.63
2018-04-16T10:08:18.632Z,450.00
2018-04-16T10:09:18.624Z,517.50
2018-04-16T10:10:18.622Z,511.88
2018-04-16T10:11:18.610Z,489.38
2018-04-16T10:12:18.603Z,472.50
2018-04-16T10:13:18.607Z,416.25
2018-04-16T10:14:18.595Z,450.00
2018-04-16T10:15:18.584Z,433.13
2018-04-16T10:16:18.581Z,421.88
2018-04-16T10:17:18.574Z,405.00
2018-04-16T10:18:18.569Z,416.25
2018-04-16T10:19:18.574Z,405.00
2018-04-16T10:20:18.564Z,416.25
2018-04-16T10:21:18.554Z,416.25
2018-04-16T10:22:18.545Z,360.00
2018-04-16T10:23:18.541Z,275.63
2018-04-16T10:24:18.536Z,393.75
2018-04-16T10:25:18.534Z,275.63
2018-04-16T10:26:18.525Z,247.50
2018-04-16T10:27:18.513Z,382.50
2018-04-16T10:28:18.538Z,399.38
2018-04-16T10:29:18.506Z,405.00
2018-04-16T10:30:18.500Z,281.25
2018-04-16T10:31:18.494Z,286.88
2018-04-16T10:32:18.485Z,253.13
2018-04-16T10:33:18.477Z,247.50
2018-04-16T10:34:18.473Z,230.63
2018-04-16T10:35:18.462Z,225.00
2018-04-16T10:36:18.457Z,230.63
2018-04-16T10:37:18.450Z,225.00
2018-04-16T10:38:18.450Z,213.75
2018-04-16T10:39:18.443Z,354.38
2018-04-16T10:40:18.433Z,360.00
2018-04-16T10:41:18.424Z,360.00
2018-04-16T10:42:18.425Z,241.88
2018-04-16T10:43:18.416Z,225.00
2018-04-16T10:44:18.402Z,309.38
2018-04-16T10:45:18.403Z,337.50
2018-04-16T10:46:18.393Z,219.38
2018-04-16T10:47:18.384Z,191.25
2018-04-16T10:48:18.394Z,180.00
2018-04-16T10:49:18.384Z,275.63
2018-04-16T10:50:18.365Z,286.88
2018-04-16T10:51:18.353Z,286.88
2018-04-16T10:52:18.351Z,286.88
2018-04-16T10:53:18.346Z,292.50
2018-04-16T10:54:18.345Z,281.25
2018-04-16T10:55:18.326Z,298.13
2018-04-16T10:56:18.324Z,219.38
2018-04-16T10:57:18.314Z,225.00
2018-04-16T10:58:18.316Z,208.13
2018-04-16T10:59:18.302Z,185.63
2018-04-16T11:00:18.299Z,180.00
2018-04-16T11:01:18.285Z,191.25
2018-04-16T11:02:18.275Z,202.50
2018-04-16T11:03:18.265Z,281.25
2018-04-16T11:04:18.264Z,275.63
2018-04-16T11:05:18.287Z,208.13
2018-04-16T11:06:18.247Z,247.50
2018-04-16T11:07:18.248Z,196.88
2018-04-16T11:08:18.233Z,202.50
2018-04-16T11:09:18.224Z,196.88
2018-04-16T11:10:18.212Z,196.88
2018-04-16T11:11:18.213Z,275.63
2018-04-16T11:12:18.205Z,292.50
2018-04-16T11:13:18.194Z,174.38
2018-04-16T11:14:18.182Z,168.75
2018-04-16T11:15:18.185Z,174.38
2018-04-16T11:16:18.173Z,303.75
2018-04-16T11:17:18.164Z,180.00
2018-04-16T11:18:18.153Z,174.38
2018-04-16T11:19:18.145Z,174.38
2018-04-16T11:20:18.145Z,180.00
2018-04-16T11:21:18.133Z,185.63
2018-04-16T11:22:18.121Z,298.13
2018-04-16T11:23:18.114Z,219.38
2018-04-16T11:24:18.112Z,202.50
2018-04-16T11:25:18.110Z,174.38
2018-04-16T11:26:18.195Z,168.75
2018-04-16T11:27:18.083Z,174.38
2018-04-16T11:28:18.072Z,247.50
2018-04-16T11:29:18.069Z,168.75
2018-04-16T11:30:18.162Z,168.75
2018-04-16T11:31:18.049Z,168.75
2018-04-16T11:32:18.108Z,281.25
2018-04-16T11:33:18.088Z,151.88
2018-04-16T11:34:18.052Z,151.88
2018-04-16T11:35:18.012Z,157.50
2018-04-16T11:36:18.014Z,157.50
2018-04-16T11:37:18.002Z,168.75
2018-04-16T11:38:17.988Z,292.50
2018-04-16T11:39:17.984Z,219.38
2018-04-16T11:40:17.973Z,365.63
2018-04-16T11:41:17.972Z,360.00
2018-04-16T11:42:17.955Z,343.13
2018-04-16T11:43:17.953Z,348.75
2018-04-16T11:44:17.944Z,343.13
2018-04-16T11:45:17.939Z,326.25
2018-04-16T11:46:17.929Z,236.25
2018-04-16T11:47:17.922Z,180.00
2018-04-16T11:48:17.913Z,163.13
2018-04-16T11:49:17.901Z,157.50
2018-04-16T11:50:17.892Z,157.50
2018-04-16T11:51:17.893Z,151.88
2018-04-16T11:52:17.887Z,258.75
2018-04-16T11:53:17.873Z,298.13
2018-04-16T11:54:17.862Z,309.38
2018-04-16T11:55:17.854Z,320.63
2018-04-16T11:56:17.851Z,309.38
2018-04-16T11:57:17.844Z,303.75
2018-04-16T11:58:17.832Z,320.63
2018-04-16T11:59:17.829Z,320.63
2018-04-16T12:00:17.832Z,320.63
2018-04-16T12:01:17.811Z,191.25
2018-04-16T12:02:17.800Z,286.88
2018-04-16T12:03:17.928Z,241.88
2018-04-16T12:04:17.846Z,264.38
2018-04-16T12:05:17.786Z,303.75
2018-04-16T12:06:17.771Z,196.88
2018-04-16T12:07:17.765Z,208.13
2018-04-16T12:08:17.765Z,168.75
2018-04-16T12:09:17.813Z,157.50
2018-04-16T12:10:17.745Z,157.50
2018-04-16T12:11:17.743Z,298.13
2018-04-16T12:12:17.733Z,315.00
2018-04-16T12:13:17.717Z,185.63
2018-04-16T12:14:17.709Z,180.00
2018-04-16T12:15:17.707Z,180.00
2018-04-16T12:16:17.704Z,180.00
2018-04-16T12:17:17.685Z,309.38
2018-04-16T12:18:17.700Z,180.00
2018-04-16T12:19:17.673Z,303.75
2018-04-16T12:20:17.667Z,230.63
2018-04-16T12:21:17.663Z,208.13
2018-04-16T12:22:17.703Z,315.00
2018-04-16T12:23:17.645Z,320.63
2018-04-16T12:24:17.651Z,320.63
2018-04-16T12:25:17.625Z,315.00
2018-04-16T12:26:17.634Z,219.38
2018-04-16T12:27:17.611Z,247.50
2018-04-16T12:28:17.602Z,315.00
2018-04-16T12:29:17.594Z,303.75
2018-04-16T12:30:17.592Z,303.75
2018-04-16T12:31:17.585Z,292.50
2018-04-16T12:32:17.576Z,157.50
2018-04-16T12:33:17.574Z,151.88
2018-04-16T12:34:17.557Z,146.25
2018-04-16T12:35:17.556Z,281.25
2018-04-16T12:36:17.544Z,281.25
2018-04-16T12:37:17.535Z,168.75
2018-04-16T12:38:17.527Z,236.25
2018-04-16T12:39:17.528Z,247.50
2018-04-16T12:40:17.517Z,275.63
2018-04-16T12:41:17.512Z,315.00
2018-04-16T12:42:17.506Z,320.63
2018-04-16T12:43:17.493Z,185.63
2018-04-16T12:44:17.483Z,180.00
2018-04-16T12:45:17.482Z,174.38
2018-04-16T12:46:17.472Z,174.38
2018-04-16T12:47:17.462Z,168.75